createdAt,value
2023-10-15T00:00:19.393Z,93.40
2023-10-15T00:02:48.147Z,93.40
2023-10-15T00:05:16.701Z,93.40
2023-10-15T00:07:43.979Z,93.50
2023-10-15T00:10:12.150Z,93.50
2023-10-15T00:12:40.814Z,93.50
2023-10-15T00:15:14.444Z,93.50
2023-10-15T00:17:42.046Z,93.50
2023-10-15T00:20:14.358Z,93.50
2023-10-15T00:22:43.676Z,93.50
2023-10-15T00:25:13.526Z,93.50
2023-10-15T00:27:43.028Z,93.50
2023-10-15T00:30:14.118Z,93.50
2023-10-15T00:32:44.544Z,93.50
2023-10-15T00:35:11.692Z,93.60
2023-10-15T00:37:56.846Z,93.50
2023-10-15T00:40:26.265Z,93.60
2023-10-15T00:42:54.937Z,93.70
2023-10-15T00:45:22.513Z,93.70
2023-10-15T00:48:02.222Z,93.70
2023-10-15T00:50:32.523Z,93.80
2023-10-15T00:53:06.817Z,93.80
2023-10-15T00:55:38.731Z,93.90
2023-10-15T00:58:09.380Z,94.20
2023-10-15T01:00:54.870Z,94.30
2023-10-15T01:03:44.878Z,94.30
2023-10-15T01:06:15.087Z,94.20
2023-10-15T01:08:42.504Z,94.30
2023-10-15T01:11:11.145Z,94.40
2023-10-15T01:13:40.230Z,94.50
2023-10-15T01:16:10.017Z,94.60
2023-10-15T01:18:37.741Z,94.70
2023-10-15T01:21:06.080Z,94.80
2023-10-15T01:23:38.653Z,94.90
2023-10-15T01:26:11.407Z,94.90
2023-10-15T01:28:38.416Z,95.00
2023-10-15T01:31:07.353Z,95.00
2023-10-15T01:33:47.289Z,95.10
2023-10-15T01:36:19.174Z,95.20
2023-10-15T01:38:46.451Z,95.20
2023-10-15T01:41:15.721Z,95.30
2023-10-15T01:43:47.244Z,95.50
2023-10-15T01:46:24.784Z,95.50
2023-10-15T01:48:51.848Z,95.60
2023-10-15T01:51:18.802Z,95.60
2023-10-15T01:53:46.393Z,95.70
2023-10-15T01:56:18.505Z,95.80
2023-10-15T01:58:48.844Z,95.90
2023-10-15T02:01:32.532Z,96.00
2023-10-15T02:03:59.907Z,96.10
2023-10-15T02:06:27.539Z,96.10
2023-10-15T02:08:56.116Z,96.20
2023-10-15T02:11:24.313Z,96.40
2023-10-15T02:13:52.390Z,96.50
2023-10-15T02:16:31.636Z,96.60
2023-10-15T02:19:01.610Z,96.70
2023-10-15T02:21:33.143Z,96.70
2023-10-15T02:24:09.449Z,96.80
2023-10-15T02:26:37.965Z,96.90
2023-10-15T02:29:08.617Z,97.30
2023-10-15T02:31:44.245Z,97.00
2023-10-15T02:34:15.860Z,97.10
2023-10-15T02:36:45.673Z,97.10
2023-10-15T02:39:12.825Z,97.10
2023-10-15T02:41:44.445Z,97.20
2023-10-15T02:44:14.863Z,97.20
2023-10-15T02:46:51.243Z,97.30
2023-10-15T02:49:18.481Z,97.40
2023-10-15T02:51:49.343Z,97.50
2023-10-15T02:54:29.290Z,97.50
2023-10-15T02:56:58.242Z,97.50
2023-10-15T02:59:25.071Z,97.60
2023-10-15T03:01:58.220Z,97.70
2023-10-15T03:04:48.101Z,97.70
2023-10-15T03:07:21.739Z,97.90
2023-10-15T03:09:58.136Z,97.90
2023-10-15T03:12:31.830Z,97.90
2023-10-15T03:14:58.698Z,97.90
2023-10-15T03:17:26.302Z,97.90
2023-10-15T03:19:56.173Z,97.90
2023-10-15T03:22:25.295Z,98.00
2023-10-15T03:24:54.273Z,98.00
2023-10-15T03:27:27.343Z,98.00
2023-10-15T03:29:58.632Z,98.00
2023-10-15T03:32:28.796Z,98.10
2023-10-15T03:35:06.005Z,98.10
2023-10-15T03:37:33.066Z,98.10
2023-10-15T03:39:59.996Z,98.20
2023-10-15T03:42:30.053Z,98.30
2023-10-15T03:45:01.071Z,98.30
2023-10-15T03:47:28.209Z,98.30
2023-10-15T03:49:57.037Z,98.30
2023-10-15T03:52:24.489Z,98.40
2023-10-15T03:54:51.968Z,98.40
2023-10-15T03:57:20.466Z,98.50
2023-10-15T03:59:56.642Z,98.50
2023-10-15T04:02:27.691Z,98.50
2023-10-15T04:05:16.445Z,98.50
2023-10-15T04:07:49.931Z,98.50
2023-10-15T04:10:24.763Z,98.50
2023-10-15T04:12:52.427Z,98.60
2023-10-15T04:15:19.387Z,98.60
2023-10-15T04:17:49.623Z,98.70
2023-10-15T04:20:17.611Z,98.80
2023-10-15T04:22:48.948Z,98.80
2023-10-15T04:25:28.286Z,98.80
2023-10-15T04:27:56.243Z,98.90
2023-10-15T04:30:24.716Z,99.00
2023-10-15T04:32:54.022Z,99.10
2023-10-15T04:35:26.990Z,99.20
2023-10-15T04:37:54.719Z,99.20
2023-10-15T04:40:24.923Z,99.30
2023-10-15T04:42:52.541Z,99.40
2023-10-15T04:45:36.499Z,99.50
2023-10-15T04:48:13.986Z,99.50
2023-10-15T04:50:42.134Z,99.60
2023-10-15T04:53:24.883Z,99.60
2023-10-15T04:55:53.474Z,99.70
2023-10-15T04:58:21.758Z,99.70
2023-10-15T05:00:49.799Z,99.70
2023-10-15T05:03:18.942Z,99.80
2023-10-15T05:05:46.340Z,99.90
2023-10-15T05:08:13.803Z,99.90
2023-10-15T05:10:52.208Z,99.90
2023-10-15T05:13:20.518Z,99.90
2023-10-15T05:15:48.236Z,99.90
2023-10-15T05:18:20.267Z,99.90
2023-10-15T05:20:51.036Z,99.90
2023-10-15T05:23:19.382Z,99.90
2023-10-15T05:25:46.427Z,99.90
2023-10-15T05:28:15.660Z,99.90
2023-10-15T05:30:43.495Z,99.90
2023-10-15T05:33:10.706Z,99.90
2023-10-15T05:35:41.537Z,99.90
2023-10-15T05:38:11.043Z,99.90
2023-10-15T05:40:39.090Z,99.90
2023-10-15T05:43:06.292Z,99.90
2023-10-15T05:45:33.405Z,99.90
2023-10-15T05:48:00.545Z,99.90
2023-10-15T05:50:27.576Z,99.90
2023-10-15T05:52:55.205Z,99.90
2023-10-15T05:55:23.472Z,99.90
2023-10-15T05:57:50.495Z,99.90
2023-10-15T06:00:21.200Z,99.90
2023-10-15T06:02:48.623Z,99.90
2023-10-15T06:05:15.992Z,99.90
2023-10-15T06:07:43.981Z,99.90
2023-10-15T06:10:12.840Z,99.90
2023-10-15T06:12:42.138Z,99.90
2023-10-15T06:15:10.663Z,99.90
2023-10-15T06:17:37.786Z,99.90
2023-10-15T06:20:14.937Z,99.90
2023-10-15T06:22:42.050Z,99.90
2023-10-15T06:25:10.016Z,99.90
2023-10-15T06:27:37.089Z,99.90
2023-10-15T06:30:06.609Z,99.90
2023-10-15T06:32:33.834Z,99.90
2023-10-15T06:35:00.837Z,99.90
2023-10-15T06:37:27.844Z,99.90
2023-10-15T06:40:04.839Z,99.90
2023-10-15T06:42:41.853Z,99.90
2023-10-15T06:45:11.316Z,99.90
2023-10-15T06:47:38.883Z,99.80
2023-10-15T06:50:07.660Z,99.60
2023-10-15T06:52:39.096Z,99.70
2023-10-15T06:55:06.954Z,99.70
2023-10-15T06:57:33.985Z,99.50
2023-10-15T07:00:01.048Z,99.60
2023-10-15T07:02:30.090Z,99.50
2023-10-15T07:04:57.877Z,99.20
2023-10-15T07:07:26.046Z,98.70
2023-10-15T07:09:53.388Z,98.60
2023-10-15T07:12:21.329Z,98.40
2023-10-15T07:14:48.261Z,97.90
2023-10-15T07:17:15.271Z,97.40
2023-10-15T07:19:44.046Z,97.30
2023-10-15T07:22:10.912Z,97.20
2023-10-15T07:24:37.794Z,97.20
2023-10-15T07:27:05.695Z,97.30
2023-10-15T07:29:32.616Z,97.60
2023-10-15T07:32:00.219Z,97.60
2023-10-15T07:34:27.701Z,97.60
2023-10-15T07:36:58.507Z,97.40
2023-10-15T07:39:26.950Z,97.00
2023-10-15T07:41:53.937Z,96.30
2023-10-15T07:44:20.950Z,95.70
2023-10-15T07:46:53.897Z,95.40
2023-10-15T07:49:21.151Z,95.00
2023-10-15T07:51:48.810Z,94.60
2023-10-15T07:54:17.200Z,94.20
2023-10-15T07:56:44.125Z,94.00
2023-10-15T07:59:11.083Z,93.50
2023-10-15T08:01:38.151Z,92.90
2023-10-15T08:04:06.549Z,92.40
2023-10-15T08:06:36.090Z,92.10
2023-10-15T08:09:03.178Z,91.50
2023-10-15T08:11:32.752Z,91.00
2023-10-15T08:14:00.665Z,90.20
2023-10-15T08:16:27.737Z,88.80
2023-10-15T08:18:54.699Z,86.60
2023-10-15T08:21:22.797Z,84.30
2023-10-15T08:23:51.228Z,82.20
2023-10-15T08:26:18.157Z,80.30
2023-10-15T08:28:46.415Z,78.50
2023-10-15T08:31:13.291Z,76.60
2023-10-15T08:33:40.309Z,74.90
2023-10-15T08:36:08.413Z,73.10
2023-10-15T08:38:38.936Z,71.60
2023-10-15T08:41:12.259Z,70.10
2023-10-15T08:43:41.993Z,68.90
2023-10-15T08:46:11.238Z,69.00
2023-10-15T08:48:41.328Z,67.00
2023-10-15T08:51:10.140Z,66.00
2023-10-15T08:53:40.277Z,64.90
2023-10-15T08:56:07.534Z,63.70
2023-10-15T08:58:35.842Z,62.60
2023-10-15T09:01:05.556Z,62.50
2023-10-15T09:03:33.885Z,61.80
2023-10-15T09:06:06.562Z,61.10
2023-10-15T09:08:36.401Z,60.90
2023-10-15T09:11:03.318Z,61.10
2023-10-15T09:13:30.338Z,60.70
2023-10-15T09:15:57.280Z,60.90
2023-10-15T09:18:26.303Z,61.50
2023-10-15T09:20:56.254Z,62.50
2023-10-15T09:23:23.727Z,63.60
2023-10-15T09:25:53.455Z,64.70
2023-10-15T09:28:21.080Z,65.80
2023-10-15T09:30:49.633Z,66.30
2023-10-15T09:33:18.639Z,66.00
2023-10-15T09:35:46.082Z,65.30
2023-10-15T09:38:15.532Z,64.40
2023-10-15T09:40:45.166Z,63.30
2023-10-15T09:43:14.079Z,62.30
2023-10-15T09:45:42.657Z,60.90
2023-10-15T09:48:12.627Z,59.70
2023-10-15T09:50:42.911Z,59.20
2023-10-15T09:53:11.461Z,58.90
2023-10-15T09:55:41.570Z,58.90
2023-10-15T09:58:12.473Z,59.30
2023-10-15T10:00:49.010Z,60.00
2023-10-15T10:04:00.806Z,61.40
2023-10-15T10:06:45.490Z,62.50
2023-10-15T10:09:31.346Z,63.00
2023-10-15T10:12:17.296Z,63.30
2023-10-15T10:15:00.171Z,64.00
2023-10-15T10:17:29.685Z,64.60
2023-10-15T10:19:57.123Z,65.10
2023-10-15T10:22:28.401Z,65.50
2023-10-15T10:24:56.091Z,66.00
2023-10-15T10:27:24.357Z,66.60
2023-10-15T10:29:52.207Z,67.10
2023-10-15T10:32:21.160Z,67.00
2023-10-15T10:35:19.670Z,67.10
2023-10-15T10:38:03.249Z,66.60
2023-10-15T10:40:49.256Z,67.30
2023-10-15T10:43:17.979Z,68.00
2023-10-15T10:45:57.509Z,68.30
2023-10-15T10:48:26.104Z,68.90
2023-10-15T10:51:20.025Z,69.40
2023-10-15T10:54:24.342Z,69.80
2023-10-15T10:57:03.814Z,70.20
2023-10-15T10:59:31.579Z,70.60
2023-10-15T11:02:00.629Z,70.90
2023-10-15T11:04:27.871Z,71.40
2023-10-15T11:06:56.243Z,71.70
2023-10-15T11:09:26.276Z,71.80
2023-10-15T11:11:54.457Z,72.00
2023-10-15T11:14:26.918Z,72.10
2023-10-15T11:16:56.346Z,72.40
2023-10-15T11:19:26.056Z,72.90
2023-10-15T11:21:53.955Z,73.20
2023-10-15T11:24:27.118Z,73.60
2023-10-15T11:26:57.851Z,73.40
2023-10-15T11:29:25.815Z,73.40
2023-10-15T11:31:57.197Z,73.30
2023-10-15T11:34:26.378Z,73.30
2023-10-15T11:36:57.532Z,73.30
2023-10-15T11:39:39.601Z,73.40
2023-10-15T11:42:08.869Z,73.40
2023-10-15T11:44:38.587Z,73.80
2023-10-15T11:47:25.916Z,74.50
2023-10-15T11:49:53.309Z,75.30
2023-10-15T11:52:20.736Z,76.20
2023-10-15T11:54:52.976Z,77.20
2023-10-15T11:57:23.628Z,78.30
2023-10-15T11:59:54.816Z,79.30
2023-10-15T12:02:23.977Z,80.20
2023-10-15T12:04:52.854Z,81.10
2023-10-15T12:07:22.609Z,82.10
2023-10-15T12:09:51.842Z,82.50
2023-10-15T12:12:21.701Z,83.20
2023-10-15T12:14:48.570Z,83.80
2023-10-15T12:17:17.839Z,84.40
2023-10-15T12:19:46.280Z,84.80
2023-10-15T12:22:16.343Z,85.00
2023-10-15T12:24:43.969Z,85.20
2023-10-15T12:27:12.547Z,85.40
2023-10-15T12:29:40.289Z,85.70
2023-10-15T12:32:13.756Z,86.00
2023-10-15T12:34:41.171Z,86.60
2023-10-15T12:37:09.027Z,86.80
2023-10-15T12:39:41.358Z,86.70
2023-10-15T12:42:12.254Z,86.40
2023-10-15T12:44:41.564Z,86.10
2023-10-15T12:47:09.676Z,85.60
2023-10-15T12:49:37.580Z,85.20
2023-10-15T12:52:05.416Z,84.70
2023-10-15T12:54:34.785Z,84.20
2023-10-15T12:57:02.191Z,83.70
2023-10-15T12:59:29.141Z,83.30
2023-10-15T13:01:57.480Z,82.80
2023-10-15T13:04:25.574Z,82.30
2023-10-15T13:06:52.734Z,82.00
2023-10-15T13:09:27.041Z,81.90
2023-10-15T13:11:54.484Z,81.60
2023-10-15T13:14:21.492Z,81.40
2023-10-15T13:16:51.639Z,81.30
2023-10-15T13:19:20.892Z,81.20
2023-10-15T13:21:47.873Z,81.10
2023-10-15T13:24:15.791Z,81.30
2023-10-15T13:26:43.458Z,81.50
2023-10-15T13:29:10.389Z,81.40
2023-10-15T13:31:37.435Z,81.20
2023-10-15T13:34:07.080Z,81.10
2023-10-15T13:36:35.323Z,81.20
2023-10-15T13:39:02.467Z,81.30
2023-10-15T13:41:29.647Z,81.30
2023-10-15T13:43:56.585Z,81.10
2023-10-15T13:46:23.501Z,80.80
2023-10-15T13:48:50.872Z,80.60
2023-10-15T13:51:18.453Z,80.30
2023-10-15T13:53:47.159Z,79.90
2023-10-15T13:56:14.205Z,79.50
2023-10-15T13:58:42.725Z,79.40
2023-10-15T14:01:11.532Z,79.20
2023-10-15T14:03:39.535Z,78.90
2023-10-15T14:06:07.013Z,79.30
2023-10-15T14:08:33.915Z,80.10
2023-10-15T14:11:04.758Z,80.70
2023-10-15T14:13:31.732Z,81.10
2023-10-15T14:16:02.897Z,81.50
2023-10-15T14:18:30.034Z,81.70
2023-10-15T14:20:57.263Z,82.20
2023-10-15T14:23:28.589Z,82.50
2023-10-15T14:25:55.744Z,82.70
2023-10-15T14:28:25.271Z,82.80
2023-10-15T14:30:53.472Z,82.90
2023-10-15T14:33:20.492Z,83.20
2023-10-15T14:35:48.097Z,83.70
2023-10-15T14:38:16.017Z,84.00
2023-10-15T14:40:44.995Z,84.30
2023-10-15T14:43:12.618Z,84.40
2023-10-15T14:45:40.932Z,84.40
2023-10-15T14:48:09.406Z,84.50
2023-10-15T14:50:39.012Z,84.50
2023-10-15T14:53:06.993Z,84.60
2023-10-15T14:55:33.994Z,84.70
2023-10-15T14:58:00.895Z,84.70
2023-10-15T15:00:27.821Z,84.90
2023-10-15T15:02:56.156Z,85.20
2023-10-15T15:05:23.056Z,85.20
2023-10-15T15:07:49.942Z,85.10
2023-10-15T15:10:17.424Z,85.20
2023-10-15T15:12:44.591Z,85.20
2023-10-15T15:15:12.214Z,85.30
2023-10-15T15:17:39.865Z,85.10
2023-10-15T15:20:09.336Z,85.00
2023-10-15T15:22:36.412Z,85.00
2023-10-15T15:25:03.489Z,85.20
2023-10-15T15:27:30.491Z,85.20
2023-10-15T15:29:57.378Z,85.10
2023-10-15T15:32:28.566Z,85.10
2023-10-15T15:34:55.751Z,85.10
2023-10-15T15:37:24.215Z,85.00
2023-10-15T15:39:51.116Z,84.90
2023-10-15T15:42:17.955Z,85.00
2023-10-15T15:44:44.843Z,85.10
2023-10-15T15:47:12.435Z,85.20
2023-10-15T15:49:41.296Z,85.30
2023-10-15T15:52:10.713Z,85.50
2023-10-15T15:54:39.259Z,85.50
2023-10-15T15:57:07.848Z,85.60
2023-10-15T15:59:35.072Z,85.60
2023-10-15T16:02:02.634Z,86.00
2023-10-15T16:04:29.928Z,86.20
2023-10-15T16:06:57.157Z,86.50
2023-10-15T16:09:24.067Z,86.70
2023-10-15T16:11:52.286Z,87.00
2023-10-15T16:14:19.172Z,87.20
2023-10-15T16:16:46.286Z,87.60
2023-10-15T16:19:13.217Z,87.80
2023-10-15T16:21:40.072Z,88.10
2023-10-15T16:24:08.511Z,88.10
2023-10-15T16:26:36.233Z,88.50
2023-10-15T16:29:04.579Z,88.70
2023-10-15T16:31:32.011Z,88.90
2023-10-15T16:33:59.559Z,89.00
2023-10-15T16:36:26.450Z,89.20
2023-10-15T16:38:54.335Z,89.50
2023-10-15T16:41:21.436Z,89.60
2023-10-15T16:43:48.531Z,89.80
2023-10-15T16:46:17.005Z,90.00
2023-10-15T16:48:45.083Z,90.00
2023-10-15T16:51:24.269Z,90.10
2023-10-15T16:53:53.332Z,90.20
2023-10-15T16:56:20.354Z,90.40
2023-10-15T16:58:48.130Z,90.50
2023-10-15T17:01:21.074Z,90.60
2023-10-15T17:03:48.074Z,90.70
2023-10-15T17:06:15.183Z,90.70
2023-10-15T17:08:42.606Z,90.80
2023-10-15T17:11:09.454Z,90.90
2023-10-15T17:13:36.280Z,90.90
2023-10-15T17:16:03.213Z,91.00
2023-10-15T17:18:31.587Z,91.10
2023-10-15T17:20:58.504Z,91.20
2023-10-15T17:23:25.514Z,91.30
2023-10-15T17:25:52.560Z,91.70
2023-10-15T17:28:21.541Z,91.50
2023-10-15T17:30:48.522Z,91.60
2023-10-15T17:33:18.312Z,91.70
2023-10-15T17:35:46.812Z,91.70
2023-10-15T17:38:14.270Z,91.80
2023-10-15T17:40:42.352Z,91.90
2023-10-15T17:43:10.706Z,91.90
2023-10-15T17:45:39.125Z,92.00
2023-10-15T17:48:07.345Z,92.50
2023-10-15T17:50:34.635Z,92.20
2023-10-15T17:53:06.190Z,92.20
2023-10-15T17:55:33.872Z,92.30
2023-10-15T17:58:01.182Z,92.40
2023-10-15T18:00:28.302Z,92.50
2023-10-15T18:02:55.286Z,92.60
2023-10-15T18:05:22.160Z,92.60
2023-10-15T18:07:50.764Z,92.60
2023-10-15T18:10:19.179Z,92.60
2023-10-15T18:12:46.253Z,92.50
2023-10-15T18:15:13.508Z,92.40
2023-10-15T18:17:40.593Z,92.20
2023-10-15T18:20:08.514Z,92.10
2023-10-15T18:22:35.481Z,92.00
2023-10-15T18:25:02.522Z,91.90
2023-10-15T18:27:30.925Z,91.80
2023-10-15T18:29:57.898Z,91.80
2023-10-15T18:32:24.786Z,91.80
2023-10-15T18:34:51.637Z,91.80
2023-10-15T18:37:18.592Z,91.80
2023-10-15T18:39:45.592Z,91.80
2023-10-15T18:42:12.527Z,91.90
2023-10-15T18:44:41.035Z,91.90
2023-10-15T18:47:08.370Z,91.90
2023-10-15T18:49:35.255Z,92.00
2023-10-15T18:52:03.936Z,92.00
2023-10-15T18:54:31.047Z,92.10
2023-10-15T18:56:58.012Z,92.10
2023-10-15T18:59:24.970Z,92.20
2023-10-15T19:01:53.222Z,92.40
2023-10-15T19:04:20.163Z,92.50
2023-10-15T19:06:47.760Z,92.60
2023-10-15T19:09:17.332Z,92.60
2023-10-15T19:11:44.901Z,92.70
2023-10-15T19:14:13.574Z,92.70
2023-10-15T19:16:40.799Z,92.80
2023-10-15T19:19:12.312Z,92.90
2023-10-15T19:21:39.473Z,93.00
2023-10-15T19:24:08.160Z,93.00
2023-10-15T19:26:35.119Z,93.10
2023-10-15T19:29:02.010Z,93.20
2023-10-15T19:31:29.475Z,93.20
2023-10-15T19:33:56.593Z,93.30
2023-10-15T19:36:24.887Z,93.40
2023-10-15T19:38:51.754Z,93.50
2023-10-15T19:41:18.770Z,93.60
2023-10-15T19:43:46.660Z,93.70
2023-10-15T19:46:15.129Z,93.80
2023-10-15T19:48:42.472Z,93.90
2023-10-15T19:51:09.662Z,94.00
2023-10-15T19:53:37.889Z,94.00
2023-10-15T19:56:04.963Z,94.10
2023-10-15T19:58:31.838Z,94.20
2023-10-15T20:01:00.133Z,94.20
2023-10-15T20:03:28.045Z,94.20
2023-10-15T20:05:55.319Z,94.30
2023-10-15T20:08:24.271Z,94.40
2023-10-15T20:10:54.069Z,94.60
2023-10-15T20:13:21.167Z,94.80
2023-10-15T20:15:48.111Z,95.00
2023-10-15T20:18:15.059Z,95.20
2023-10-15T20:20:42.159Z,95.30
2023-10-15T20:23:09.099Z,95.30
2023-10-15T20:25:36.162Z,95.40
2023-10-15T20:28:06.550Z,95.50
2023-10-15T20:30:33.633Z,95.50
2023-10-15T20:33:00.623Z,95.50
2023-10-15T20:35:28.497Z,95.60
2023-10-15T20:37:56.056Z,95.60
2023-10-15T20:40:26.590Z,95.70
2023-10-15T20:42:54.276Z,95.70
2023-10-15T20:45:26.687Z,95.70
2023-10-15T20:47:57.315Z,96.10
2023-10-15T20:50:24.501Z,95.80
2023-10-15T20:52:51.442Z,95.80
2023-10-15T20:55:19.388Z,96.00
2023-10-15T20:57:47.448Z,96.10
2023-10-15T21:00:20.879Z,96.20
2023-10-15T21:02:50.210Z,96.20
2023-10-15T21:05:18.809Z,96.20
2023-10-15T21:07:50.686Z,96.20
2023-10-15T21:10:17.839Z,96.30
2023-10-15T21:12:45.565Z,96.30
2023-10-15T21:15:13.645Z,96.30
2023-10-15T21:17:41.912Z,96.40
2023-10-15T21:20:12.434Z,96.40
2023-10-15T21:22:40.980Z,96.40
2023-10-15T21:25:16.346Z,96.40
2023-10-15T21:27:44.171Z,96.50
2023-10-15T21:30:13.364Z,96.50
2023-10-15T21:32:41.388Z,96.50
2023-10-15T21:35:10.898Z,96.60
2023-10-15T21:37:41.711Z,96.70
2023-10-15T21:40:10.168Z,96.80
2023-10-15T21:42:37.295Z,96.80
2023-10-15T21:45:07.139Z,96.80
2023-10-15T21:47:35.804Z,96.90
2023-10-15T21:50:04.175Z,96.90
2023-10-15T21:52:32.662Z,96.90
2023-10-15T21:54:59.538Z,97.00
2023-10-15T21:57:26.627Z,97.00
2023-10-15T21:59:53.641Z,97.00
2023-10-15T22:02:21.789Z,97.00
2023-10-15T22:04:48.847Z,97.10
2023-10-15T22:07:15.797Z,97.20
2023-10-15T22:09:44.250Z,97.20
2023-10-15T22:12:11.325Z,97.30
2023-10-15T22:14:46.662Z,97.30
2023-10-15T22:17:15.728Z,97.40
2023-10-15T22:19:43.942Z,97.40
2023-10-15T22:22:11.871Z,97.50
2023-10-15T22:24:41.305Z,97.50
2023-10-15T22:27:16.207Z,97.60
2023-10-15T22:29:43.460Z,97.70
2023-10-15T22:32:10.864Z,97.70
2023-10-15T22:34:39.079Z,97.80
2023-10-15T22:37:07.318Z,97.80
2023-10-15T22:39:37.666Z,97.90
2023-10-15T22:42:12.072Z,97.90
2023-10-15T22:44:46.833Z,98.00
2023-10-15T22:47:14.662Z,98.00
2023-10-15T22:49:41.992Z,98.10
2023-10-15T22:52:09.089Z,98.10
2023-10-15T22:54:36.137Z,98.10
2023-10-15T22:57:04.306Z,98.20
2023-10-15T22:59:31.572Z,98.20
2023-10-15T23:01:59.976Z,98.20
2023-10-15T23:04:27.613Z,98.20
2023-10-15T23:06:55.016Z,98.30
2023-10-15T23:09:22.548Z,98.30
2023-10-15T23:11:50.074Z,98.30
2023-10-15T23:14:17.326Z,98.40
2023-10-15T23:16:46.330Z,98.50
2023-10-15T23:19:16.881Z,98.50
2023-10-15T23:21:56.414Z,98.60
2023-10-15T23:24:26.766Z,98.50
2023-10-15T23:26:54.017Z,98.60
2023-10-15T23:29:25.582Z,98.60
2023-10-15T23:31:52.657Z,98.60
2023-10-15T23:34:22.289Z,98.70
2023-10-15T23:36:49.472Z,98.70
2023-10-15T23:39:20.325Z,98.70
2023-10-15T23:41:50.639Z,98.70
2023-10-15T23:44:22.694Z,98.80
2023-10-15T23:46:50.032Z,98.80
2023-10-15T23:49:26.661Z,98.70
2023-10-15T23:51:56.566Z,98.80
2023-10-15T23:54:27.997Z,98.80
2023-10-15T23:56:55.116Z,98.70
2023-10-15T23:59:22.699Z,98.80
